sensor_id;sensor_type;location;lat;lon;timestamp;P1;durP1;ratioP1;P2;durP2;ratioP2
19179;SDS011;9722;48.754;8.868;2024-03-08T00:02:58;16.57;;;13.53;;
19179;SDS011;9722;48.754;8.868;2024-03-08T00:06:21;17.43;;;14.00;;
19179;SDS011;9722;48.754;8.868;2024-03-08T00:09:41;17.33;;;12.37;;
19179;SDS011;9722;48.754;8.868;2024-03-08T00:13:02;16.07;;;13.13;;
19179;SDS011;9722;48.754;8.868;2024-03-08T00:16:24;18.47;;;12.83;;
19179;SDS011;9722;48.754;8.868;2024-03-08T00:19:44;17.13;;;13.37;;
19179;SDS011;9722;48.754;8.868;2024-03-08T00:23:05;18.43;;;13.37;;
19179;SDS011;9722;48.754;8.868;2024-03-08T00:26:25;20.40;;;13.87;;
19179;SDS011;9722;48.754;8.868;2024-03-08T00:29:46;17.73;;;13.77;;
19179;SDS011;9722;48.754;8.868;2024-03-08T00:33:07;15.40;;;12.93;;
19179;SDS011;9722;48.754;8.868;2024-03-08T00:36:27;18.40;;;13.83;;
19179;SDS011;9722;48.754;8.868;2024-03-08T00:39:50;17.30;;;12.60;;
19179;SDS011;9722;48.754;8.868;2024-03-08T00:43:11;15.40;;;12.07;;
19179;SDS011;9722;48.754;8.868;2024-03-08T00:46:32;15.17;;;12.87;;
19179;SDS011;9722;48.754;8.868;2024-03-08T00:49:53;16.67;;;12.90;;
19179;SDS011;9722;48.754;8.868;2024-03-08T00:53:16;17.77;;;11.80;;
19179;SDS011;9722;48.754;8.868;2024-03-08T00:56:37;15.87;;;12.87;;
19179;SDS011;9722;48.754;8.868;2024-03-08T00:59:59;14.10;;;12.57;;
19179;SDS011;9722;48.754;8.868;2024-03-08T01:03:19;14.67;;;12.80;;
19179;SDS011;9722;48.754;8.868;2024-03-08T01:06:40;16.80;;;11.80;;
19179;SDS011;9722;48.754;8.868;2024-03-08T01:10:04;16.90;;;12.70;;
19179;SDS011;9722;48.754;8.868;2024-03-08T01:13:31;18.43;;;12.83;;
19179;SDS011;9722;48.754;8.868;2024-03-08T01:16:52;20.33;;;13.03;;
19179;SDS011;9722;48.754;8.868;2024-03-08T01:20:12;16.37;;;12.40;;
19179;SDS011;9722;48.754;8.868;2024-03-08T01:23:33;20.27;;;13.20;;
19179;SDS011;9722;48.754;8.868;2024-03-08T01:26:54;13.87;;;12.40;;
19179;SDS011;9722;48.754;8.868;2024-03-08T01:30:15;19.07;;;12.70;;
19179;SDS011;9722;48.754;8.868;2024-03-08T01:33:37;16.27;;;11.90;;
19179;SDS011;9722;48.754;8.868;2024-03-08T01:36:57;14.03;;;11.80;;
19179;SDS011;9722;48.754;8.868;2024-03-08T01:40:18;16.53;;;12.43;;
19179;SDS011;9722;48.754;8.868;2024-03-08T01:43:39;17.83;;;12.43;;
19179;SDS011;9722;48.754;8.868;2024-03-08T01:46:59;15.63;;;12.47;;
19179;SDS011;9722;48.754;8.868;2024-03-08T01:50:20;14.57;;;12.80;;
19179;SDS011;9722;48.754;8.868;2024-03-08T01:53:40;17.97;;;12.37;;
19179;SDS011;9722;48.754;8.868;2024-03-08T01:57:05;15.00;;;12.13;;
19179;SDS011;9722;48.754;8.868;2024-03-08T02:00:26;18.27;;;12.43;;
19179;SDS011;9722;48.754;8.868;2024-03-08T02:03:49;17.00;;;11.83;;
19179;SDS011;9722;48.754;8.868;2024-03-08T02:07:10;14.77;;;12.03;;
19179;SDS011;9722;48.754;8.868;2024-03-08T02:10:31;15.90;;;11.87;;
19179;SDS011;9722;48.754;8.868;2024-03-08T02:13:53;12.57;;;10.77;;
19179;SDS011;9722;48.754;8.868;2024-03-08T02:17:13;15.70;;;12.27;;
19179;SDS011;9722;48.754;8.868;2024-03-08T02:20:33;18.40;;;12.17;;
19179;SDS011;9722;48.754;8.868;2024-03-08T02:23:54;15.23;;;12.17;;
19179;SDS011;9722;48.754;8.868;2024-03-08T02:27:15;15.10;;;11.63;;
19179;SDS011;9722;48.754;8.868;2024-03-08T02:30:42;16.10;;;12.00;;
19179;SDS011;9722;48.754;8.868;2024-03-08T02:34:03;20.63;;;12.17;;
19179;SDS011;9722;48.754;8.868;2024-03-08T02:37:25;21.13;;;12.23;;
19179;SDS011;9722;48.754;8.868;2024-03-08T02:40:46;18.20;;;12.40;;
19179;SDS011;9722;48.754;8.868;2024-03-08T02:44:08;16.67;;;12.87;;
19179;SDS011;9722;48.754;8.868;2024-03-08T02:47:29;16.60;;;12.10;;
19179;SDS011;9722;48.754;8.868;2024-03-08T02:50:51;18.80;;;13.13;;
19179;SDS011;9722;48.754;8.868;2024-03-08T02:54:11;17.47;;;12.23;;
19179;SDS011;9722;48.754;8.868;2024-03-08T02:57:32;13.63;;;11.40;;
19179;SDS011;9722;48.754;8.868;2024-03-08T03:00:52;16.23;;;11.80;;
19179;SDS011;9722;48.754;8.868;2024-03-08T03:04:13;15.90;;;12.47;;
19179;SDS011;9722;48.754;8.868;2024-03-08T03:07:33;17.53;;;12.03;;
19179;SDS011;9722;48.754;8.868;2024-03-08T03:10:54;14.57;;;12.60;;
19179;SDS011;9722;48.754;8.868;2024-03-08T03:14:16;14.57;;;11.73;;
19179;SDS011;9722;48.754;8.868;2024-03-08T03:17:37;16.40;;;12.17;;
19179;SDS011;9722;48.754;8.868;2024-03-08T03:20:57;15.27;;;11.63;;
19179;SDS011;9722;48.754;8.868;2024-03-08T03:24:18;14.30;;;11.23;;
19179;SDS011;9722;48.754;8.868;2024-03-08T03:27:41;15.30;;;11.53;;
19179;SDS011;9722;48.754;8.868;2024-03-08T03:31:01;13.50;;;11.07;;
19179;SDS011;9722;48.754;8.868;2024-03-08T03:34:22;14.90;;;12.10;;
19179;SDS011;9722;48.754;8.868;2024-03-08T03:37:43;18.60;;;12.23;;
19179;SDS011;9722;48.754;8.868;2024-03-08T03:41:11;18.43;;;13.10;;
19179;SDS011;9722;48.754;8.868;2024-03-08T03:44:31;17.93;;;11.90;;
19179;SDS011;9722;48.754;8.868;2024-03-08T03:47:52;17.83;;;11.73;;
19179;SDS011;9722;48.754;8.868;2024-03-08T03:51:13;18.00;;;12.53;;
19179;SDS011;9722;48.754;8.868;2024-03-08T03:54:35;18.00;;;12.20;;
19179;SDS011;9722;48.754;8.868;2024-03-08T03:57:56;14.83;;;11.17;;
19179;SDS011;9722;48.754;8.868;2024-03-08T04:01:18;14.30;;;11.43;;
19179;SDS011;9722;48.754;8.868;2024-03-08T04:04:39;13.00;;;11.57;;
19179;SDS011;9722;48.754;8.868;2024-03-08T04:08:00;12.90;;;11.37;;
19179;SDS011;9722;48.754;8.868;2024-03-08T04:11:20;17.70;;;12.43;;
19179;SDS011;9722;48.754;8.868;2024-03-08T04:14:41;15.57;;;12.23;;
19179;SDS011;9722;48.754;8.868;2024-03-08T04:18:02;14.83;;;10.90;;
19179;SDS011;9722;48.754;8.868;2024-03-08T04:21:23;14.17;;;11.40;;
19179;SDS011;9722;48.754;8.868;2024-03-08T04:24:44;16.97;;;12.20;;
19179;SDS011;9722;48.754;8.868;2024-03-08T04:28:05;16.93;;;11.93;;
19179;SDS011;9722;48.754;8.868;2024-03-08T04:31:27;17.83;;;12.37;;
19179;SDS011;9722;48.754;8.868;2024-03-08T04:34:47;17.87;;;11.73;;
19179;SDS011;9722;48.754;8.868;2024-03-08T04:38:09;18.57;;;11.70;;
19179;SDS011;9722;48.754;8.868;2024-03-08T04:41:29;16.90;;;12.13;;
19179;SDS011;9722;48.754;8.868;2024-03-08T04:44:50;14.93;;;11.33;;
19179;SDS011;9722;48.754;8.868;2024-03-08T04:48:11;15.00;;;12.13;;
19179;SDS011;9722;48.754;8.868;2024-03-08T04:51:31;18.47;;;12.73;;
19179;SDS011;9722;48.754;8.868;2024-03-08T04:54:52;17.90;;;11.83;;
19179;SDS011;9722;48.754;8.868;2024-03-08T04:58:12;15.70;;;12.40;;
19179;SDS011;9722;48.754;8.868;2024-03-08T05:01:33;14.90;;;10.23;;
19179;SDS011;9722;48.754;8.868;2024-03-08T05:04:56;16.97;;;12.20;;
19179;SDS011;9722;48.754;8.868;2024-03-08T05:08:17;16.13;;;11.50;;
19179;SDS011;9722;48.754;8.868;2024-03-08T05:11:47;15.90;;;12.10;;
19179;SDS011;9722;48.754;8.868;2024-03-08T05:15:08;18.83;;;12.57;;
19179;SDS011;9722;48.754;8.868;2024-03-08T05:18:28;17.60;;;11.90;;
19179;SDS011;9722;48.754;8.868;2024-03-08T05:21:51;17.57;;;12.13;;
19179;SDS011;9722;48.754;8.868;2024-03-08T05:25:11;16.93;;;11.77;;
19179;SDS011;9722;48.754;8.868;2024-03-08T05:28:32;15.83;;;12.40;;
19179;SDS011;9722;48.754;8.868;2024-03-08T05:31:53;15.03;;;11.80;;
19179;SDS011;9722;48.754;8.868;2024-03-08T05:35:13;14.63;;;12.07;;
19179;SDS011;9722;48.754;8.868;2024-03-08T05:38:36;19.00;;;12.50;;
19179;SDS011;9722;48.754;8.868;2024-03-08T05:41:56;13.97;;;11.93;;
19179;SDS011;9722;48.754;8.868;2024-03-08T05:45:17;20.10;;;12.27;;
19179;SDS011;9722;48.754;8.868;2024-03-08T05:48:38;20.80;;;13.90;;
19179;SDS011;9722;48.754;8.868;2024-03-08T05:51:58;18.00;;;12.00;;
19179;SDS011;9722;48.754;8.868;2024-03-08T05:55:20;16.90;;;12.27;;
19179;SDS011;9722;48.754;8.868;2024-03-08T05:58:41;20.60;;;12.10;;
19179;SDS011;9722;48.754;8.868;2024-03-08T06:02:01;16.27;;;11.70;;
19179;SDS011;9722;48.754;8.868;2024-03-08T06:05:22;14.73;;;12.60;;
19179;SDS011;9722;48.754;8.868;2024-03-08T06:08:44;15.60;;;12.07;;
19179;SDS011;9722;48.754;8.868;2024-03-08T06:12:05;17.33;;;11.87;;
19179;SDS011;9722;48.754;8.868;2024-03-08T06:15:26;16.00;;;12.70;;
19179;SDS011;9722;48.754;8.868;2024-03-08T06:18:47;19.33;;;12.60;;
19179;SDS011;9722;48.754;8.868;2024-03-08T06:22:07;19.37;;;13.07;;
19179;SDS011;9722;48.754;8.868;2024-03-08T06:25:29;18.70;;;13.27;;
19179;SDS011;9722;48.754;8.868;2024-03-08T06:28:50;18.30;;;12.20;;
19179;SDS011;9722;48.754;8.868;2024-03-08T06:32:10;17.77;;;12.70;;
19179;SDS011;9722;48.754;8.868;2024-03-08T06:35:31;20.17;;;14.13;;
19179;SDS011;9722;48.754;8.868;2024-03-08T06:38:52;21.10;;;14.53;;
19179;SDS011;9722;48.754;8.868;2024-03-08T06:42:12;19.87;;;13.90;;
19179;SDS011;9722;48.754;8.868;2024-03-08T06:45:33;20.17;;;14.20;;
19179;SDS011;9722;48.754;8.868;2024-03-08T06:48:53;22.00;;;14.97;;
19179;SDS011;9722;48.754;8.868;2024-03-08T06:52:14;24.47;;;14.60;;
19179;SDS011;9722;48.754;8.868;2024-03-08T06:55:34;19.20;;;13.93;;
19179;SDS011;9722;48.754;8.868;2024-03-08T06:58:55;19.03;;;14.10;;
19179;SDS011;9722;48.754;8.868;2024-03-08T07:02:15;18.77;;;13.80;;
19179;SDS011;9722;48.754;8.868;2024-03-08T07:05:36;16.37;;;12.53;;
19179;SDS011;9722;48.754;8.868;2024-03-08T07:08:57;17.93;;;13.87;;
19179;SDS011;9722;48.754;8.868;2024-03-08T07:12:18;17.43;;;13.20;;
19179;SDS011;9722;48.754;8.868;2024-03-08T07:15:40;14.03;;;11.87;;
19179;SDS011;9722;48.754;8.868;2024-03-08T07:19:02;17.90;;;12.83;;
19179;SDS011;9722;48.754;8.868;2024-03-08T07:22:23;15.83;;;12.50;;
19179;SDS011;9722;48.754;8.868;2024-03-08T07:25:43;14.27;;;12.73;;
19179;SDS011;9722;48.754;8.868;2024-03-08T07:29:04;16.07;;;12.33;;
19179;SDS011;9722;48.754;8.868;2024-03-08T07:32:24;16.67;;;12.20;;
19179;SDS011;9722;48.754;8.868;2024-03-08T07:35:46;20.40;;;13.27;;
19179;SDS011;9722;48.754;8.868;2024-03-08T07:39:07;18.20;;;13.47;;
19179;SDS011;9722;48.754;8.868;2024-03-08T07:42:31;15.93;;;12.70;;
19179;SDS011;9722;48.754;8.868;2024-03-08T07:45:52;18.10;;;12.37;;
19179;SDS011;9722;48.754;8.868;2024-03-08T07:49:15;17.63;;;13.20;;
19179;SDS011;9722;48.754;8.868;2024-03-08T07:52:35;16.83;;;12.73;;
19179;SDS011;9722;48.754;8.868;2024-03-08T07:55:56;18.27;;;13.80;;
19179;SDS011;9722;48.754;8.868;2024-03-08T07:59:16;22.23;;;12.80;;
19179;SDS011;9722;48.754;8.868;2024-03-08T08:02:37;17.27;;;13.37;;
19179;SDS011;9722;48.754;8.868;2024-03-08T08:05:57;16.67;;;13.50;;
19179;SDS011;9722;48.754;8.868;2024-03-08T08:09:18;19.73;;;14.47;;
19179;SDS011;9722;48.754;8.868;2024-03-08T08:12:48;15.37;;;13.67;;
19179;SDS011;9722;48.754;8.868;2024-03-08T08:16:09;21.43;;;14.47;;
19179;SDS011;9722;48.754;8.868;2024-03-08T08:19:30;16.27;;;13.47;;
19179;SDS011;9722;48.754;8.868;2024-03-08T08:22:51;21.83;;;13.27;;
19179;SDS011;9722;48.754;8.868;2024-03-08T08:26:14;15.50;;;11.73;;
19179;SDS011;9722;48.754;8.868;2024-03-08T08:29:34;18.93;;;12.70;;
19179;SDS011;9722;48.754;8.868;2024-03-08T08:32:55;16.10;;;12.87;;
19179;SDS011;9722;48.754;8.868;2024-03-08T08:36:18;15.33;;;12.37;;
19179;SDS011;9722;48.754;8.868;2024-03-08T08:39:38;12.10;;;9.40;;
19179;SDS011;9722;48.754;8.868;2024-03-08T08:42:59;15.43;;;11.67;;
19179;SDS011;9722;48.754;8.868;2024-03-08T08:46:19;12.20;;;10.17;;
19179;SDS011;9722;48.754;8.868;2024-03-08T08:49:41;14.43;;;11.23;;
19179;SDS011;9722;48.754;8.868;2024-03-08T08:53:02;14.43;;;11.47;;
19179;SDS011;9722;48.754;8.868;2024-03-08T08:56:23;14.20;;;11.23;;
19179;SDS011;9722;48.754;8.868;2024-03-08T08:59:45;14.60;;;12.00;;
19179;SDS011;9722;48.754;8.868;2024-03-08T09:03:06;13.30;;;10.43;;
19179;SDS011;9722;48.754;8.868;2024-03-08T09:06:31;13.63;;;11.40;;
19179;SDS011;9722;48.754;8.868;2024-03-08T09:09:51;14.87;;;11.80;;
19179;SDS011;9722;48.754;8.868;2024-03-08T09:13:16;13.63;;;11.47;;
19179;SDS011;9722;48.754;8.868;2024-03-08T09:16:38;13.27;;;10.93;;
19179;SDS011;9722;48.754;8.868;2024-03-08T09:19:58;12.00;;;10.80;;
19179;SDS011;9722;48.754;8.868;2024-03-08T09:23:19;11.83;;;10.30;;
19179;SDS011;9722;48.754;8.868;2024-03-08T09:26:40;11.63;;;10.27;;
19179;SDS011;9722;48.754;8.868;2024-03-08T09:30:02;12.87;;;11.47;;
19179;SDS011;9722;48.754;8.868;2024-03-08T09:33:24;14.00;;;11.13;;
19179;SDS011;9722;48.754;8.868;2024-03-08T09:36:44;11.47;;;10.23;;
19179;SDS011;9722;48.754;8.868;2024-03-08T09:40:05;11.23;;;10.07;;
19179;SDS011;9722;48.754;8.868;2024-03-08T09:43:29;14.43;;;11.00;;
19179;SDS011;9722;48.754;8.868;2024-03-08T09:46:50;11.40;;;10.20;;
19179;SDS011;9722;48.754;8.868;2024-03-08T09:50:13;12.40;;;11.10;;
19179;SDS011;9722;48.754;8.868;2024-03-08T09:53:34;11.67;;;10.40;;
19179;SDS011;9722;48.754;8.868;2024-03-08T09:56:55;15.83;;;10.93;;
19179;SDS011;9722;48.754;8.868;2024-03-08T10:00:16;12.17;;;10.87;;
19179;SDS011;9722;48.754;8.868;2024-03-08T10:03:44;13.50;;;10.37;;
19179;SDS011;9722;48.754;8.868;2024-03-08T10:07:08;12.57;;;9.67;;
19179;SDS011;9722;48.754;8.868;2024-03-08T10:10:28;11.43;;;10.27;;
19179;SDS011;9722;48.754;8.868;2024-03-08T10:13:49;13.73;;;11.03;;
19179;SDS011;9722;48.754;8.868;2024-03-08T10:17:10;11.87;;;10.73;;
19179;SDS011;9722;48.754;8.868;2024-03-08T10:20:30;11.40;;;10.30;;
19179;SDS011;9722;48.754;8.868;2024-03-08T10:23:55;11.70;;;10.43;;
19179;SDS011;9722;48.754;8.868;2024-03-08T10:27:16;12.27;;;10.90;;
19179;SDS011;9722;48.754;8.868;2024-03-08T10:30:37;13.20;;;10.23;;
19179;SDS011;9722;48.754;8.868;2024-03-08T10:33:58;11.13;;;10.13;;
19179;SDS011;9722;48.754;8.868;2024-03-08T10:37:21;13.47;;;10.97;;
19179;SDS011;9722;48.754;8.868;2024-03-08T10:40:42;11.20;;;9.93;;
19179;SDS011;9722;48.754;8.868;2024-03-08T10:44:10;10.77;;;9.77;;
19179;SDS011;9722;48.754;8.868;2024-03-08T10:47:45;11.47;;;10.27;;
19179;SDS011;9722;48.754;8.868;2024-03-08T10:51:10;12.47;;;10.57;;
19179;SDS011;9722;48.754;8.868;2024-03-08T10:54:32;13.43;;;9.50;;
19179;SDS011;9722;48.754;8.868;2024-03-08T10:57:56;10.47;;;9.47;;
19179;SDS011;9722;48.754;8.868;2024-03-08T11:01:17;11.07;;;9.60;;
19179;SDS011;9722;48.754;8.868;2024-03-08T11:04:37;11.77;;;10.23;;
19179;SDS011;9722;48.754;8.868;2024-03-08T11:07:58;10.73;;;9.63;;
19179;SDS011;9722;48.754;8.868;2024-03-08T11:11:25;10.43;;;9.33;;
19179;SDS011;9722;48.754;8.868;2024-03-08T11:14:53;11.07;;;9.53;;
19179;SDS011;9722;48.754;8.868;2024-03-08T11:18:14;10.43;;;9.07;;
19179;SDS011;9722;48.754;8.868;2024-03-08T11:21:34;10.60;;;9.50;;
19179;SDS011;9722;48.754;8.868;2024-03-08T11:25:05;10.87;;;9.67;;
19179;SDS011;9722;48.754;8.868;2024-03-08T11:28:29;10.77;;;9.57;;
19179;SDS011;9722;48.754;8.868;2024-03-08T11:31:51;10.43;;;9.37;;
19179;SDS011;9722;48.754;8.868;2024-03-08T11:35:19;10.97;;;9.83;;
19179;SDS011;9722;48.754;8.868;2024-03-08T11:38:41;11.10;;;10.00;;
19179;SDS011;9722;48.754;8.868;2024-03-08T11:42:03;11.43;;;9.50;;
19179;SDS011;9722;48.754;8.868;2024-03-08T11:45:24;10.83;;;9.77;;
19179;SDS011;9722;48.754;8.868;2024-03-08T11:48:47;11.57;;;9.83;;
19179;SDS011;9722;48.754;8.868;2024-03-08T11:52:09;10.77;;;9.63;;
19179;SDS011;9722;48.754;8.868;2024-03-08T11:55:33;9.80;;;8.80;;
19179;SDS011;9722;48.754;8.868;2024-03-08T11:58:56;11.87;;;10.27;;
19179;SDS011;9722;48.754;8.868;2024-03-08T12:02:21;9.60;;;8.70;;
19179;SDS011;9722;48.754;8.868;2024-03-08T12:05:43;9.63;;;8.73;;
19179;SDS011;9722;48.754;8.868;2024-03-08T12:09:03;10.30;;;9.40;;
19179;SDS011;9722;48.754;8.868;2024-03-08T12:12:24;10.60;;;9.60;;
19179;SDS011;9722;48.754;8.868;2024-03-08T12:15:45;8.93;;;8.13;;
19179;SDS011;9722;48.754;8.868;2024-03-08T12:19:05;10.23;;;9.23;;
19179;SDS011;9722;48.754;8.868;2024-03-08T12:22:26;10.70;;;9.80;;
19179;SDS011;9722;48.754;8.868;2024-03-08T12:25:47;10.10;;;9.27;;
19179;SDS011;9722;48.754;8.868;2024-03-08T12:29:40;10.43;;;9.63;;
19179;SDS011;9722;48.754;8.868;2024-03-08T12:32:59;10.67;;;9.77;;
19179;SDS011;9722;48.754;8.868;2024-03-08T12:36:20;10.13;;;9.33;;
19179;SDS011;9722;48.754;8.868;2024-03-08T12:39:41;11.37;;;10.47;;
19179;SDS011;9722;48.754;8.868;2024-03-08T12:43:01;10.77;;;9.97;;
19179;SDS011;9722;48.754;8.868;2024-03-08T12:46:23;10.90;;;10.00;;
19179;SDS011;9722;48.754;8.868;2024-03-08T12:49:47;10.43;;;9.63;;
19179;SDS011;9722;48.754;8.868;2024-03-08T12:53:08;10.67;;;9.67;;
19179;SDS011;9722;48.754;8.868;2024-03-08T12:56:33;10.63;;;9.83;;
19179;SDS011;9722;48.754;8.868;2024-03-08T12:59:55;10.93;;;10.13;;
19179;SDS011;9722;48.754;8.868;2024-03-08T13:03:15;10.67;;;9.87;;
19179;SDS011;9722;48.754;8.868;2024-03-08T13:06:36;10.83;;;10.03;;
19179;SDS011;9722;48.754;8.868;2024-03-08T13:09:57;11.07;;;10.17;;
19179;SDS011;9722;48.754;8.868;2024-03-08T13:13:19;10.03;;;9.33;;
19179;SDS011;9722;48.754;8.868;2024-03-08T13:16:40;10.27;;;9.47;;
19179;SDS011;9722;48.754;8.868;2024-03-08T13:20:00;9.97;;;9.20;;
19179;SDS011;9722;48.754;8.868;2024-03-08T13:23:21;10.13;;;9.37;;
19179;SDS011;9722;48.754;8.868;2024-03-08T13:26:42;10.23;;;9.53;;
19179;SDS011;9722;48.754;8.868;2024-03-08T13:30:03;11.17;;;10.17;;
19179;SDS011;9722;48.754;8.868;2024-03-08T13:33:24;10.83;;;10.03;;
19179;SDS011;9722;48.754;8.868;2024-03-08T13:36:45;10.80;;;10.00;;
19179;SDS011;9722;48.754;8.868;2024-03-08T13:40:06;11.73;;;10.87;;
19179;SDS011;9722;48.754;8.868;2024-03-08T13:43:33;11.43;;;10.63;;
19179;SDS011;9722;48.754;8.868;2024-03-08T13:46:56;10.43;;;9.73;;
19179;SDS011;9722;48.754;8.868;2024-03-08T13:50:18;11.23;;;10.33;;
19179;SDS011;9722;48.754;8.868;2024-03-08T13:53:41;11.40;;;10.50;;
19179;SDS011;9722;48.754;8.868;2024-03-08T13:57:01;11.83;;;10.97;;
19179;SDS011;9722;48.754;8.868;2024-03-08T14:00:25;11.60;;;10.57;;
19179;SDS011;9722;48.754;8.868;2024-03-08T14:03:52;11.87;;;10.97;;
19179;SDS011;9722;48.754;8.868;2024-03-08T14:07:13;12.30;;;11.40;;
19179;SDS011;9722;48.754;8.868;2024-03-08T14:10:34;11.40;;;10.57;;
19179;SDS011;9722;48.754;8.868;2024-03-08T14:13:54;11.40;;;10.47;;
19179;SDS011;9722;48.754;8.868;2024-03-08T14:17:15;12.10;;;11.10;;
19179;SDS011;9722;48.754;8.868;2024-03-08T14:20:43;12.27;;;11.17;;
19179;SDS011;9722;48.754;8.868;2024-03-08T14:24:04;11.87;;;10.83;;
19179;SDS011;9722;48.754;8.868;2024-03-08T14:27:25;12.30;;;11.13;;
19179;SDS011;9722;48.754;8.868;2024-03-08T14:30:47;12.20;;;11.20;;
19179;SDS011;9722;48.754;8.868;2024-03-08T14:34:07;11.70;;;10.70;;
19179;SDS011;9722;48.754;8.868;2024-03-08T14:37:28;11.97;;;10.77;;
19179;SDS011;9722;48.754;8.868;2024-03-08T14:40:49;13.40;;;11.20;;
19179;SDS011;9722;48.754;8.868;2024-03-08T14:44:10;12.43;;;11.23;;
19179;SDS011;9722;48.754;8.868;2024-03-08T14:47:31;11.83;;;10.73;;
19179;SDS011;9722;48.754;8.868;2024-03-08T14:50:53;12.17;;;11.07;;
19179;SDS011;9722;48.754;8.868;2024-03-08T14:54:14;11.33;;;10.43;;
19179;SDS011;9722;48.754;8.868;2024-03-08T14:57:35;10.87;;;9.90;;
19179;SDS011;9722;48.754;8.868;2024-03-08T15:00:55;11.23;;;10.13;;
19179;SDS011;9722;48.754;8.868;2024-03-08T15:04:20;11.33;;;10.23;;
19179;SDS011;9722;48.754;8.868;2024-03-08T15:07:40;12.30;;;11.20;;
19179;SDS011;9722;48.754;8.868;2024-03-08T15:11:02;12.67;;;11.53;;
19179;SDS011;9722;48.754;8.868;2024-03-08T15:14:24;11.47;;;10.43;;
19179;SDS011;9722;48.754;8.868;2024-03-08T15:17:45;11.47;;;10.47;;
19179;SDS011;9722;48.754;8.868;2024-03-08T15:21:07;12.20;;;11.00;;
19179;SDS011;9722;48.754;8.868;2024-03-08T15:24:27;12.70;;;11.53;;
19179;SDS011;9722;48.754;8.868;2024-03-08T15:27:48;11.90;;;10.80;;
19179;SDS011;9722;48.754;8.868;2024-03-08T15:31:09;12.13;;;10.93;;
19179;SDS011;9722;48.754;8.868;2024-03-08T15:34:29;11.90;;;10.77;;
19179;SDS011;9722;48.754;8.868;2024-03-08T15:37:52;12.93;;;10.97;;
19179;SDS011;9722;48.754;8.868;2024-03-08T15:41:14;14.53;;;10.53;;
19179;SDS011;9722;48.754;8.868;2024-03-08T15:44:35;11.70;;;10.50;;
19179;SDS011;9722;48.754;8.868;2024-03-08T15:47:57;11.30;;;9.87;;
19179;SDS011;9722;48.754;8.868;2024-03-08T15:51:18;15.40;;;10.47;;
19179;SDS011;9722;48.754;8.868;2024-03-08T15:54:39;12.13;;;10.60;;
19179;SDS011;9722;48.754;8.868;2024-03-08T15:58:00;12.60;;;10.07;;
19179;SDS011;9722;48.754;8.868;2024-03-08T16:01:21;11.43;;;9.63;;
19179;SDS011;9722;48.754;8.868;2024-03-08T16:04:42;11.00;;;9.80;;
19179;SDS011;9722;48.754;8.868;2024-03-08T16:08:05;11.13;;;9.93;;
19179;SDS011;9722;48.754;8.868;2024-03-08T16:11:28;11.50;;;10.23;;
19179;SDS011;9722;48.754;8.868;2024-03-08T16:14:49;11.80;;;10.47;;
19179;SDS011;9722;48.754;8.868;2024-03-08T16:18:14;12.63;;;10.30;;
19179;SDS011;9722;48.754;8.868;2024-03-08T16:21:35;14.13;;;10.80;;
19179;SDS011;9722;48.754;8.868;2024-03-08T16:24:56;12.60;;;10.50;;
19179;SDS011;9722;48.754;8.868;2024-03-08T16:28:17;16.37;;;11.93;;
19179;SDS011;9722;48.754;8.868;2024-03-08T16:31:39;15.70;;;11.17;;
19179;SDS011;9722;48.754;8.868;2024-03-08T16:35:05;13.60;;;12.13;;
19179;SDS011;9722;48.754;8.868;2024-03-08T16:38:30;13.37;;;11.77;;
19179;SDS011;9722;48.754;8.868;2024-03-08T16:41:51;15.60;;;12.07;;
19179;SDS011;9722;48.754;8.868;2024-03-08T16:45:12;14.00;;;12.03;;
19179;SDS011;9722;48.754;8.868;2024-03-08T16:48:34;14.03;;;11.70;;
19179;SDS011;9722;48.754;8.868;2024-03-08T16:51:56;16.07;;;12.47;;
19179;SDS011;9722;48.754;8.868;2024-03-08T16:55:16;14.93;;;12.67;;
19179;SDS011;9722;48.754;8.868;2024-03-08T16:58:38;12.67;;;11.03;;
19179;SDS011;9722;48.754;8.868;2024-03-08T17:02:01;15.50;;;11.83;;
19179;SDS011;9722;48.754;8.868;2024-03-08T17:05:22;17.70;;;13.57;;
19179;SDS011;9722;48.754;8.868;2024-03-08T17:08:48;16.60;;;13.63;;
19179;SDS011;9722;48.754;8.868;2024-03-08T17:12:09;25.87;;;14.63;;
19179;SDS011;9722;48.754;8.868;2024-03-08T17:15:30;19.57;;;13.27;;
19179;SDS011;9722;48.754;8.868;2024-03-08T17:18:52;16.20;;;12.77;;
19179;SDS011;9722;48.754;8.868;2024-03-08T17:22:12;16.60;;;13.83;;
19179;SDS011;9722;48.754;8.868;2024-03-08T17:25:34;17.47;;;13.30;;
19179;SDS011;9722;48.754;8.868;2024-03-08T17:28:55;14.93;;;12.63;;
19179;SDS011;9722;48.754;8.868;2024-03-08T17:32:18;16.83;;;12.97;;
19179;SDS011;9722;48.754;8.868;2024-03-08T17:35:38;18.73;;;13.83;;
19179;SDS011;9722;48.754;8.868;2024-03-08T17:38:59;17.10;;;13.20;;
19179;SDS011;9722;48.754;8.868;2024-03-08T17:42:19;19.23;;;14.37;;
19179;SDS011;9722;48.754;8.868;2024-03-08T17:45:40;18.83;;;13.73;;
19179;SDS011;9722;48.754;8.868;2024-03-08T17:49:05;23.60;;;14.93;;
19179;SDS011;9722;48.754;8.868;2024-03-08T17:52:26;20.33;;;14.60;;
19179;SDS011;9722;48.754;8.868;2024-03-08T17:55:46;17.07;;;13.37;;
19179;SDS011;9722;48.754;8.868;2024-03-08T17:59:10;17.23;;;12.43;;
19179;SDS011;9722;48.754;8.868;2024-03-08T18:02:32;17.13;;;12.70;;
19179;SDS011;9722;48.754;8.868;2024-03-08T18:05:53;15.40;;;11.33;;
19179;SDS011;9722;48.754;8.868;2024-03-08T18:09:14;15.87;;;12.07;;
19179;SDS011;9722;48.754;8.868;2024-03-08T18:12:34;19.87;;;12.60;;
19179;SDS011;9722;48.754;8.868;2024-03-08T18:15:55;13.27;;;11.37;;
19179;SDS011;9722;48.754;8.868;2024-03-08T18:19:16;13.30;;;10.90;;
19179;SDS011;9722;48.754;8.868;2024-03-08T18:22:39;13.80;;;12.03;;
19179;SDS011;9722;48.754;8.868;2024-03-08T18:26:00;19.70;;;12.87;;
19179;SDS011;9722;48.754;8.868;2024-03-08T18:29:21;21.30;;;13.20;;
19179;SDS011;9722;48.754;8.868;2024-03-08T18:32:47;32.03;;;16.13;;
19179;SDS011;9722;48.754;8.868;2024-03-08T18:36:08;36.77;;;15.10;;
19179;SDS011;9722;48.754;8.868;2024-03-08T18:39:29;24.70;;;14.97;;
19179;SDS011;9722;48.754;8.868;2024-03-08T18:42:50;18.17;;;14.10;;
19179;SDS011;9722;48.754;8.868;2024-03-08T18:46:11;15.77;;;11.97;;
19179;SDS011;9722;48.754;8.868;2024-03-08T18:49:32;20.27;;;14.37;;
19179;SDS011;9722;48.754;8.868;2024-03-08T18:52:52;20.10;;;13.30;;
19179;SDS011;9722;48.754;8.868;2024-03-08T18:56:13;21.90;;;14.90;;
19179;SDS011;9722;48.754;8.868;2024-03-08T18:59:36;13.97;;;10.80;;
19179;SDS011;9722;48.754;8.868;2024-03-08T19:02:59;19.23;;;14.23;;
19179;SDS011;9722;48.754;8.868;2024-03-08T19:06:20;17.93;;;13.13;;
19179;SDS011;9722;48.754;8.868;2024-03-08T19:09:41;13.17;;;10.57;;
19179;SDS011;9722;48.754;8.868;2024-03-08T19:13:05;31.07;;;18.67;;
19179;SDS011;9722;48.754;8.868;2024-03-08T19:16:28;25.50;;;14.17;;
19179;SDS011;9722;48.754;8.868;2024-03-08T19:19:48;21.67;;;14.77;;
19179;SDS011;9722;48.754;8.868;2024-03-08T19:23:09;17.93;;;13.83;;
19179;SDS011;9722;48.754;8.868;2024-03-08T19:26:30;17.07;;;12.27;;
19179;SDS011;9722;48.754;8.868;2024-03-08T19:29:51;15.20;;;10.97;;
19179;SDS011;9722;48.754;8.868;2024-03-08T19:33:12;15.43;;;11.47;;
19179;SDS011;9722;48.754;8.868;2024-03-08T19:36:32;14.90;;;11.33;;
19179;SDS011;9722;48.754;8.868;2024-03-08T19:39:53;18.73;;;13.67;;
19179;SDS011;9722;48.754;8.868;2024-03-08T19:43:13;17.90;;;12.70;;
19179;SDS011;9722;48.754;8.868;2024-03-08T19:46:35;13.60;;;11.40;;
19179;SDS011;9722;48.754;8.868;2024-03-08T19:50:00;13.70;;;11.53;;
19179;SDS011;9722;48.754;8.868;2024-03-08T19:53:21;15.80;;;11.57;;
19179;SDS011;9722;48.754;8.868;2024-03-08T19:56:42;15.17;;;10.57;;
19179;SDS011;9722;48.754;8.868;2024-03-08T20:00:04;17.27;;;12.63;;